Time;durP1;ratioP1;P1;durP2;ratioP2;P2;SDS_P1;SDS_P2;PMS_P1;PMS_P2;Temp;Humidity;BMP_temperature;BMP_pressure;BME280_temperature;BME280_humidity;BME280_pressure;Samples;Min_cycle;Max_cycle;Signal;HPM_P1;HPM_P2
2022/05/11 00:00:08;;;;;;;;;7.67;7.00;;;;;21.28;45.19;100953.06;5111601;27;45866;-63
2022/05/11 00:02:33;;;;;;;;;6.67;6.67;;;;;21.35;45.08;100971.06;5114999;27;45708;-63
2022/05/11 00:04:58;;;;;;;;;10.33;7.67;;;;;21.29;45.57;100957.56;5110195;27;46094;-63
2022/05/11 00:07:24;;;;;;;;;10.67;8.00;;;;;21.21;45.77;100939.59;5096225;27;45441;-62
2022/05/11 00:09:49;;;;;;;;;8.00;8.00;;;;;21.19;45.67;100939.59;5096693;27;45483;-64
2022/05/11 00:12:15;;;;;;;;;7.33;6.00;;;;;21.11;45.68;100919.81;5101811;27;45456;-63
2022/05/11 00:14:40;;;;;;;;;7.00;7.00;;;;;21.30;45.65;100955.75;5096460;27;46462;-63
2022/05/11 00:17:06;;;;;;;;;4.00;4.00;;;;;21.27;45.63;100953.97;5096158;27;44697;-64
2022/05/11 00:19:31;;;;;;;;;8.33;5.33;;;;;21.15;45.32;100925.19;5104854;27;45622;-64
2022/05/11 00:21:57;;;;;;;;;19.25;14.75;;;;;21.12;45.47;100913.47;5116215;27;45572;-63
2022/05/11 00:24:22;;;;;;;;;7.33;6.33;;;;;21.26;45.45;100940.41;5116175;27;45686;-63
2022/05/11 00:26:47;;;;;;;;;6.67;5.00;;;;;20.97;45.56;100906.44;5116250;27;45381;-64
2022/05/11 00:29:13;;;;;;;;;5.33;5.33;;;;;21.22;45.56;100934.13;5116345;27;45704;-62
2022/05/11 00:31:38;;;;;;;;;9.33;7.67;;;;;21.20;45.51;100932.34;5116228;27;45717;-62
2022/05/11 00:34:03;;;;;;;;;7.33;7.33;;;;;21.17;45.88;100934.19;5115735;27;46397;-63
2022/05/11 00:36:29;;;;;;;;;6.67;6.67;;;;;21.15;45.95;100925.19;5115970;27;45286;-63
2022/05/11 00:38:54;;;;;;;;;7.33;5.00;;;;;21.12;46.01;100924.34;5115987;27;45937;-64
2022/05/11 00:41:20;;;;;;;;;6.67;6.00;;;;;21.07;46.27;100918.03;5116117;27;45416;-63
2022/05/11 00:43:55;;;;;;;;;9.33;6.67;;;;;20.63;46.26;100841.72;5078268;27;47107;-64
2022/05/11 00:46:28;;;;;;;;;8.00;6.00;;;;;20.90;46.00;100880.25;5077610;27;45523;-63
2022/05/11 00:51:45;;;;;;;;;8.00;8.00;;;;;21.01;46.09;100908.16;5115560;27;45542;-62
2022/05/11 00:54:13;;;;;;;;;5.67;5.67;;;;;20.95;46.19;100905.53;5109122;27;46254;-63
2022/05/11 00:56:45;;;;;;;;;4.67;4.67;;;;;20.95;46.42;100902.81;5095585;27;45436;-64
2022/05/11 00:59:19;;;;;;;;;9.67;6.33;;;;;20.66;46.10;100871.53;5095784;27;45543;-61
2022/05/11 01:01:45;;;;;;;;;8.33;6.33;;;;;20.85;46.67;100887.56;5095785;27;45653;-62
2022/05/11 01:04:17;;;;;;;;;7.33;6.00;;;;;20.74;46.53;100883.19;5105898;27;45399;-63
2022/05/11 01:06:43;;;;;;;;;9.33;6.00;;;;;20.80;46.57;100895.78;5115043;27;45494;-62
2022/05/11 01:09:10;;;;;;;;;6.33;6.33;;;;;20.68;46.88;100885.09;5115003;27;45436;-63
2022/05/11 01:11:43;;;;;;;;;9.00;5.33;;;;;20.68;46.64;100883.28;5115293;27;45565;-62
2022/05/11 01:14:12;;;;;;;;;5.00;4.00;;;;;20.65;46.50;100868.84;5111162;27;46824;-65
2022/05/11 01:16:40;;;;;;;;;5.00;4.00;;;;;20.43;46.85;100836.53;5114997;27;45249;-63
2022/05/11 01:19:07;;;;;;;;;5.33;5.33;;;;;20.66;46.59;100895.97;5107647;27;45334;-62
2022/05/11 01:21:49;;;;;;;;;8.33;5.33;;;;;20.68;46.93;100869.69;5095426;27;45404;-62
2022/05/11 01:24:35;;;;;;;;;4.67;4.67;;;;;20.53;46.64;100845.44;5108375;27;46262;-63
2022/05/11 01:27:21;;;;;;;;;6.00;4.67;;;;;20.66;46.77;100866.09;5114739;27;45514;-62
2022/05/11 01:29:47;;;;;;;;;10.67;7.33;;;;;20.62;46.87;100862.50;5114775;27;45483;-63
2022/05/11 01:32:12;;;;;;;;;8.67;7.00;;;;;20.62;46.74;100865.22;5115361;27;45684;-63
2022/05/11 01:34:38;;;;;;;;;6.00;6.00;;;;;20.60;46.75;100855.28;5114721;27;46163;-64
2022/05/11 01:37:04;;;;;;;;;4.00;4.00;;;;;20.67;46.48;100864.28;5115162;27;45451;-64
2022/05/11 01:39:29;;;;;;;;;5.33;4.67;;;;;20.64;46.77;100859.81;5115246;27;45623;-63
2022/05/11 01:41:55;;;;;;;;;5.33;5.33;;;;;20.58;46.80;100858.03;5114979;27;45330;-64
2022/05/11 01:44:22;;;;;;;;;7.33;6.00;;;;;20.50;46.87;100832.78;5109304;27;47003;-64
2022/05/11 01:46:50;;;;;;;;;6.67;5.67;;;;;20.61;46.86;100866.13;5094954;27;45440;-63
2022/05/11 01:49:16;;;;;;;;;5.67;5.67;;;;;20.52;47.24;100855.38;5095181;27;45463;-63
2022/05/11 01:51:42;;;;;;;;;6.00;5.00;;;;;20.53;46.95;100872.59;5095087;27;45550;-66
2022/05/11 01:54:08;;;;;;;;;6.67;5.33;;;;;20.46;46.97;100860.00;5094270;27;46656;-63
2022/05/11 01:56:34;;;;;;;;;6.33;4.33;;;;;20.34;46.88;100839.34;5094870;27;45361;-63
2022/05/11 01:58:59;;;;;;;;;6.00;4.67;;;;;20.46;47.47;100866.34;5095044;27;45475;-63
2022/05/11 02:01:28;;;;;;;;;6.67;6.33;;;;;20.44;47.33;100866.34;5095513;27;45267;-63
2022/05/11 02:03:55;;;;;;;;;9.00;7.50;;;;;20.22;47.29;100827.72;5094990;27;46237;-62
2022/05/11 02:09:06;;;;;;;;;7.00;6.00;;;;;20.46;47.15;100869.06;5095074;27;45319;-62
2022/05/11 02:11:32;;;;;;;;;8.33;5.00;;;;;20.43;47.48;100871.81;5105224;27;45522;-66
2022/05/11 02:13:58;;;;;;;;;2.33;2.00;;;;;20.40;47.24;100861.88;5114144;27;46473;-63
2022/05/11 02:16:24;;;;;;;;;4.67;4.33;;;;;20.37;47.63;100855.59;5114380;27;45503;-61
2022/05/11 02:18:50;;;;;;;;;5.67;5.33;;;;;20.11;47.40;100832.38;5114449;27;45387;-62
2022/05/11 02:21:15;;;;;;;;;6.33;6.00;;;;;20.17;47.59;100851.28;5114754;27;45376;-61
2022/05/11 02:23:41;;;;;;;;;5.00;5.00;;;;;20.00;48.05;100832.50;5114350;27;45410;-64
2022/05/11 02:26:10;;;;;;;;;5.00;4.67;;;;;20.14;48.04;100858.56;5114528;27;45749;-64
2022/05/11 02:28:35;;;;;;;;;7.00;5.33;;;;;19.57;48.17;100770.59;5114416;27;45341;-64
2022/05/11 02:31:00;;;;;;;;;6.67;5.00;;;;;20.05;48.25;100857.75;5114463;27;45396;-63
2022/05/11 02:33:27;;;;;;;;;6.50;6.50;;;;;19.98;48.41;100844.28;5112874;27;45530;-63
2022/05/11 02:35:54;;;;;;;;;5.00;5.00;;;;;20.07;48.29;100847.78;5096490;27;45350;-62
2022/05/11 02:38:23;;;;;;;;;4.67;4.67;;;;;20.10;48.08;100849.56;5098093;27;45765;-62
2022/05/11 02:40:49;;;;;;;;;3.00;3.00;;;;;20.13;48.09;100854.97;5093335;27;45459;-64
2022/05/11 02:43:15;;;;;;;;;5.00;5.00;;;;;20.15;48.06;100852.25;5104946;27;46498;-64
2022/05/11 02:45:41;;;;;;;;;4.00;4.00;;;;;20.05;48.15;100829.75;5117627;27;45340;-64
2022/05/11 02:48:09;;;;;;;;;6.00;3.33;;;;;20.17;47.74;100847.69;5089763;27;45283;-63
2022/05/11 02:50:38;;;;;;;;;7.67;7.67;;;;;20.18;48.29;100844.97;5097990;27;45605;-64
2022/05/11 02:53:08;;;;;;;;;3.00;3.00;;;;;20.00;47.85;100807.22;5097507;27;46029;-63
2022/05/11 02:55:35;;;;;;;;;7.00;5.67;;;;;19.92;47.96;100800.97;5103671;27;45289;-64
2022/05/11 02:58:01;;;;;;;;;8.00;5.00;;;;;20.06;47.88;100820.69;5097778;27;45487;-63
2022/05/11 03:00:26;;;;;;;;;6.50;5.00;;;;;20.12;48.07;100834.16;5097819;27;45494;-63
2022/05/11 03:02:52;;;;;;;;;7.00;5.50;;;;;20.07;48.22;100820.66;5097451;27;46211;-64
2022/05/11 03:05:17;;;;;;;;;8.25;8.25;;;;;19.96;48.28;100806.31;5097427;27;45378;-62
2022/05/11 03:07:43;;;;;;;;;7.00;5.33;;;;;20.12;48.25;100836.00;5097533;27;45389;-64
2022/05/11 03:10:09;;;;;;;;;9.00;6.00;;;;;20.11;48.34;100835.06;5097650;27;45382;-65
2022/05/11 03:12:35;;;;;;;;;8.25;8.25;;;;;20.06;48.27;100829.72;5094794;27;47498;-64
2022/05/11 03:15:01;;;;;;;;;8.33;6.67;;;;;19.97;48.01;100813.56;5097336;27;45768;-64
2022/05/11 03:17:26;;;;;;;;;5.00;5.00;;;;;20.13;48.54;100830.56;5097459;27;45546;-64
2022/05/11 03:19:52;;;;;;;;;10.75;8.50;;;;;20.13;48.48;100833.28;5097334;27;45300;-63
2022/05/11 03:22:18;;;;;;;;;5.00;5.00;;;;;20.03;48.85;100831.59;5096819;27;45516;-62
2022/05/11 03:24:44;;;;;;;;;11.00;8.75;;;;;19.81;48.84;100796.53;5107638;27;45443;-64
2022/05/11 03:27:09;;;;;;;;;6.67;6.67;;;;;19.98;48.85;100828.00;5116772;27;45346;-64
2022/05/11 03:29:36;;;;;;;;;8.33;6.33;;;;;19.68;48.84;100776.78;5117105;27;45370;-63
2022/05/11 03:35:03;;;;;;;;;8.33;8.00;;;;;20.07;48.60;100831.50;5021207;28;45529;-65
2022/05/11 03:37:29;;;;;;;;;7.00;7.00;;;;;20.10;48.69;100830.59;5097362;27;45792;-64
2022/05/11 03:39:54;;;;;;;;;7.33;7.33;;;;;20.06;48.69;100826.09;5116878;27;45429;-63
2022/05/11 03:42:22;;;;;;;;;9.00;7.00;;;;;20.03;48.77;100818.03;5116729;27;45333;-63
2022/05/11 03:44:48;;;;;;;;;8.00;7.00;;;;;20.06;48.63;100823.38;5116870;27;45574;-64
2022/05/11 03:47:13;;;;;;;;;7.00;7.00;;;;;19.94;48.87;100801.84;5117081;27;45401;-65
2022/05/11 03:49:38;;;;;;;;;11.50;8.75;;;;;19.93;48.81;100798.25;5116968;27;45534;-64
2022/05/11 03:52:04;;;;;;;;;7.67;6.33;;;;;20.07;48.79;100819.78;5116372;27;46031;-64
2022/05/11 03:54:30;;;;;;;;;6.00;6.00;;;;;20.00;48.73;100799.97;5116447;27;45337;-64
2022/05/11 03:56:56;;;;;;;;;7.00;6.00;;;;;20.11;48.49;100823.34;5114516;27;46255;-65
2022/05/11 03:59:21;;;;;;;;;6.25;5.50;;;;;20.12;48.55;100817.91;5116545;27;45676;-64
2022/05/11 04:01:46;;;;;;;;;7.75;7.00;;;;;20.13;48.42;100833.28;5116215;27;45282;-62
2022/05/11 04:04:12;;;;;;;;;8.75;7.50;;;;;19.66;48.64;100740.66;5111819;27;45343;-63
2022/05/11 04:06:38;;;;;;;;;6.50;5.75;;;;;20.08;48.71;100827.00;5116268;27;45507;-61
2022/05/11 04:09:03;;;;;;;;;11.50;8.75;;;;;19.89;49.28;100802.78;5116484;27;45595;-63
2022/05/11 04:11:29;;;;;;;;;9.50;8.25;;;;;19.73;49.10;100782.13;5116014;27;46028;-64
2022/05/11 04:13:56;;;;;;;;;5.25;5.25;;;;;20.00;49.08;100828.91;5107018;27;45606;-63
2022/05/11 04:16:22;;;;;;;;;12.50;8.50;;;;;19.79;49.01;100801.09;5096229;27;45381;-63
2022/05/11 04:18:48;;;;;;;;;9.00;8.25;;;;;19.98;49.40;100833.41;5096457;27;45567;-63
2022/05/11 04:21:14;;;;;;;;;8.25;7.00;;;;;19.79;49.65;100820.06;5095959;27;45450;-64
2022/05/11 04:23:43;;;;;;;;;7.50;7.00;;;;;19.78;49.71;100829.13;5094700;27;45768;-63
2022/05/11 04:26:12;;;;;;;;;9.00;6.50;;;;;19.56;49.71;100790.47;5096199;27;45504;-64
2022/05/11 04:28:39;;;;;;;;;12.00;6.25;;;;;19.87;49.76;100844.41;5095744;27;46019;-64
2022/05/11 04:31:09;;;;;;;;;11.75;10.00;;;;;19.81;49.83;100839.03;5079770;27;47098;-64
2022/05/11 04:33:35;;;;;;;;;14.00;10.25;;;;;19.78;49.82;100844.47;5115901;27;45678;-64
2022/05/11 04:36:02;;;;;;;;;9.50;7.25;;;;;19.66;50.07;100819.25;5113158;27;45359;-63
2022/05/11 04:38:27;;;;;;;;;10.25;8.25;;;;;19.70;49.62;100826.47;5116122;27;45437;-64
2022/05/11 04:40:53;;;;;;;;;8.25;8.25;;;;;19.81;49.56;100831.78;5115675;27;46529;-63
2022/05/11 04:43:19;;;;;;;;;12.00;10.25;;;;;19.57;49.70;100796.75;5115653;27;45464;-65
2022/05/11 04:45:45;;;;;;;;;9.50;7.50;;;;;19.34;49.92;100762.69;5115579;27;45446;-65
2022/05/11 04:48:12;;;;;;;;;11.50;10.50;;;;;19.80;49.75;100835.44;5111690;27;45478;-67
2022/05/11 04:50:42;;;;;;;;;11.25;10.75;;;;;19.82;49.95;100830.88;5090724;27;46298;-64
2022/05/11 04:53:08;;;;;;;;;10.50;9.00;;;;;19.85;50.04;100824.56;5095793;27;45417;-63
2022/05/11 04:55:34;;;;;;;;;13.25;11.50;;;;;19.88;50.02;100835.34;5095981;27;45424;-63
2022/05/11 04:58:00;;;;;;;;;12.25;9.75;;;;;19.75;50.28;100807.47;5079336;27;45598;-63
2022/05/11 05:00:25;;;;;;;;;11.75;9.50;;;;;19.83;50.37;100824.56;5095361;27;46015;-64
2022/05/11 05:02:51;;;;;;;;;10.00;9.00;;;;;19.86;50.43;100831.75;5095351;27;45470;-63
2022/05/11 05:05:18;;;;;;;;;10.33;9.67;;;;;19.75;50.19;100815.63;5095644;27;45549;-63
2022/05/11 05:07:43;;;;;;;;;11.25;11.25;;;;;19.71;50.06;100813.78;5095746;27;45389;-63
2022/05/11 05:10:12;;;;;;;;;12.50;10.75;;;;;19.80;50.45;100837.22;5095198;27;46156;-63
2022/05/11 05:12:38;;;;;;;;;16.00;13.75;;;;;19.67;50.38;100815.66;5101443;27;45363;-63
2022/05/11 05:15:04;;;;;;;;;12.50;11.00;;;;;19.65;50.09;100811.13;5109612;27;45458;-63
2022/05/11 05:17:30;;;;;;;;;10.75;10.00;;;;;19.80;50.12;100835.44;5093576;27;45438;-64
2022/05/11 05:19:55;;;;;;;;;15.00;12.50;;;;;19.83;50.17;100834.50;5099939;27;45686;-63
2022/05/11 05:22:21;;;;;;;;;11.00;11.00;;;;;19.81;50.22;100830.91;5096610;27;45345;-62
2022/05/11 05:24:46;;;;;;;;;11.75;9.50;;;;;19.81;50.05;100825.47;5095212;27;45448;-66
2022/05/11 05:27:14;;;;;;;;;18.25;14.50;;;;;19.78;50.18;100825.50;5095599;27;45504;-63
2022/05/11 05:32:24;;;;;;;;;11.50;10.25;;;;;19.76;50.11;100828.22;5108260;27;45535;-63
2022/05/11 05:34:49;;;;;;;;;12.75;12.75;;;;;19.80;50.15;100832.72;5095266;27;45344;-63
2022/05/11 05:37:17;;;;;;;;;11.75;11.75;;;;;19.71;50.00;100832.78;5100265;27;45380;-64
2022/05/11 05:39:43;;;;;;;;;11.00;11.00;;;;;19.46;50.15;100783.34;5094748;27;46245;-64
2022/05/11 05:42:15;;;;;;;;;13.75;12.25;;;;;19.35;50.04;100783.44;5093780;27;45398;-69
2022/05/11 05:44:40;;;;;;;;;12.25;11.75;;;;;19.23;49.78;100759.19;5094698;27;45736;-63
2022/05/11 05:47:07;;;;;;;;;12.75;10.75;;;;;19.65;50.04;100835.53;5098899;27;45419;-64
2022/05/11 05:49:33;;;;;;;;;12.75;12.75;;;;;19.65;49.84;100844.59;5094144;27;46322;-64
2022/05/11 05:52:01;;;;;;;;;14.50;13.75;;;;;19.50;50.01;100814.91;5093849;27;45449;-62
2022/05/11 05:54:28;;;;;;;;;13.50;11.75;;;;;19.65;50.19;100844.59;5093773;27;45592;-66
2022/05/11 05:56:54;;;;;;;;;13.25;11.25;;;;;19.62;49.94;100836.47;5094305;27;45467;-65
2022/05/11 05:59:19;;;;;;;;;18.00;17.25;;;;;19.62;49.76;100838.31;5094170;27;45483;-63
2022/05/11 06:01:44;;;;;;;;;8.75;8.50;;;;;19.63;49.80;100831.94;5097356;27;45739;-64
2022/05/11 06:04:10;;;;;;;;;12.75;10.00;;;;;19.71;50.34;100846.31;5104886;27;45506;-63
2022/05/11 06:06:35;;;;;;;;;16.50;10.75;;;;;19.60;49.88;100821.13;5109952;27;45489;-63
2022/05/11 06:09:01;;;;;;;;;19.00;16.75;;;;;19.63;49.65;100831.94;5110634;27;51690;-63
2022/05/11 06:11:26;;;;;;;;;14.00;12.75;;;;;19.26;49.51;100760.03;5116753;27;45488;-63
2022/05/11 06:13:51;;;;;;;;;13.00;11.75;;;;;19.70;49.38;100834.59;5108789;27;45568;-62
2022/05/11 06:16:17;;;;;;;;;11.00;11.00;;;;;19.81;49.61;100853.47;5107613;27;45493;-63
2022/05/11 06:18:45;;;;;;;;;12.00;12.00;;;;;19.78;49.45;100848.13;5102136;27;45691;-63
2022/05/11 06:21:12;;;;;;;;;9.00;9.00;;;;;19.83;49.29;100851.69;5096308;27;45652;-68
2022/05/11 06:23:38;;;;;;;;;14.25;12.00;;;;;19.47;49.53;100782.44;5117364;27;45592;-63
2022/05/11 06:26:04;;;;;;;;;12.00;12.00;;;;;19.84;48.76;100839.91;5117635;27;45607;-65
2022/05/11 06:28:30;;;;;;;;;13.00;11.00;;;;;19.55;48.46;100798.59;5117263;27;46038;-63
2022/05/11 06:30:55;;;;;;;;;12.75;11.50;;;;;19.80;48.57;100857.13;5111533;27;45441;-65
2022/05/11 06:33:21;;;;;;;;;14.25;10.75;;;;;19.88;48.32;100848.88;5105256;27;45610;-65
2022/05/11 06:35:46;;;;;;;;;10.33;10.33;;;;;19.86;48.14;100840.81;5117402;27;45463;-65
2022/05/11 06:38:11;;;;;;;;;12.25;12.25;;;;;19.87;47.56;100831.72;5100942;27;48878;-64
2022/05/11 06:40:38;;;;;;;;;14.25;12.50;;;;;19.93;47.71;100838.00;5111380;27;45412;-65
2022/05/11 06:43:04;;;;;;;;;12.25;12.25;;;;;19.90;47.84;100833.53;5101804;27;45326;-65
2022/05/11 06:45:30;;;;;;;;;13.00;10.25;;;;;19.95;47.49;100837.09;5097858;27;45483;-64
2022/05/11 06:47:56;;;;;;;;;14.50;12.00;;;;;19.99;47.34;100837.94;5097117;27;45967;-64
2022/05/11 06:50:21;;;;;;;;;11.25;10.25;;;;;20.05;47.51;100846.91;5097296;27;45424;-66
2022/05/11 06:52:47;;;;;;;;;9.50;8.00;;;;;19.96;47.25;100819.00;5115092;27;45818;-67
2022/05/11 07:00:41;;;;;;;;;8.25;8.25;;;;;20.14;46.53;100813.34;5112831;27;45449;-65
2022/05/11 07:03:07;;;;;;;;;11.33;10.33;;;;;20.33;46.54;100843.88;5108161;27;45508;-66
2022/05/11 07:05:34;;;;;;;;;8.33;7.00;;;;;20.35;46.47;100844.75;5099002;27;45715;-65
2022/05/11 07:08:00;;;;;;;;;12.25;11.00;;;;;20.44;45.98;100850.06;5102171;27;45952;-64
2022/05/11 07:10:26;;;;;;;;;14.00;11.67;;;;;20.46;45.76;100830.13;5096622;27;45373;-65
2022/05/11 07:12:51;;;;;;;;;12.67;10.00;;;;;20.34;45.57;100820.34;5097328;27;45400;-62
2022/05/11 07:15:19;;;;;;;;;12.00;9.33;;;;;20.51;45.31;100840.03;5099172;27;45459;-64
2022/05/11 07:17:56;;;;;;;;;11.67;9.00;;;;;20.36;45.17;100816.72;5111926;27;46239;-63
2022/05/11 07:20:26;;;;;;;;;10.00;9.33;;;;;20.53;45.28;100840.00;5100829;27;45559;-64
2022/05/11 07:22:52;;;;;;;;;13.00;13.00;;;;;20.54;45.22;100845.44;5116100;27;45488;-63
2022/05/11 07:25:20;;;;;;;;;14.50;12.00;;;;;20.57;45.39;100839.97;5113434;27;45488;-66
2022/05/11 07:27:46;;;;;;;;;10.33;9.33;;;;;20.44;45.42;100800.31;5101033;27;46396;-67
2022/05/11 07:30:16;;;;;;;;;10.33;10.33;;;;;20.71;45.53;100836.19;5096222;27;45365;-64
2022/05/11 07:32:41;;;;;;;;;10.00;7.33;;;;;20.84;45.17;100839.59;5096531;27;45546;-64
2022/05/11 07:35:07;;;;;;;;;10.00;10.00;;;;;20.85;44.87;100833.25;5098145;27;45438;-64
2022/05/11 07:37:33;;;;;;;;;11.00;9.50;;;;;20.97;44.52;100835.81;5085836;27;47286;-64
2022/05/11 07:39:59;;;;;;;;;11.67;8.33;;;;;21.00;44.66;100824.88;5100181;27;45566;-64
2022/05/11 07:42:26;;;;;;;;;8.00;7.00;;;;;21.04;44.54;100823.91;5100641;27;45562;-64
2022/05/11 07:44:51;;;;;;;;;9.00;8.00;;;;;21.15;43.83;100835.50;5096181;27;45516;-64
2022/05/11 07:47:21;;;;;;;;;8.33;6.67;;;;;20.84;44.05;100774.44;5097650;27;46051;-66
2022/05/11 07:49:47;;;;;;;;;14.75;14.00;;;;;21.27;43.22;100830.81;5101835;27;45525;-65
2022/05/11 07:52:12;;;;;;;;;10.33;10.00;;;;;21.30;42.68;100828.94;5096043;27;45439;-63
2022/05/11 07:54:40;;;;;;;;;9.33;7.33;;;;;21.26;42.61;100824.44;5097550;27;46339;-63
2022/05/11 07:59:56;;;;;;;;;10.67;10.67;;;;;21.49;42.22;100837.69;5096039;27;45414;-64
2022/05/11 08:02:27;;;;;;;;;9.67;6.67;;;;;21.34;41.92;100795.31;5094968;27;45519;-64
2022/05/11 08:04:53;;;;;;;;;9.00;9.00;;;;;21.56;41.94;100813.13;5096518;27;45251;-68
2022/05/11 08:07:19;;;;;;;;;8.33;7.00;;;;;21.61;40.96;100800.34;5096085;27;45527;-65
2022/05/11 08:09:45;;;;;;;;;10.00;7.67;;;;;21.86;41.03;100841.56;5097171;27;45753;-65
2022/05/11 08:12:10;;;;;;;;;7.33;6.00;;;;;21.90;40.87;100840.59;5109115;27;45630;-65
2022/05/11 08:14:36;;;;;;;;;10.67;9.00;;;;;21.95;40.86;100827.78;5100932;27;45520;-66
2022/05/11 08:17:01;;;;;;;;;10.00;10.00;;;;;22.05;40.80;100832.13;5106390;27;45681;-68
2022/05/11 08:19:28;;;;;;;;;12.00;7.33;;;;;22.14;40.57;100831.06;5107521;27;45576;-64
2022/05/11 08:21:57;;;;;;;;;10.00;8.00;;;;;22.05;39.41;100795.88;5102080;27;45266;-64
2022/05/11 08:24:22;;;;;;;;;8.33;8.00;;;;;22.16;38.55;100810.16;5100733;27;45236;-63
2022/05/11 08:26:51;;;;;;;;;10.00;7.00;;;;;22.33;37.81;100831.59;5109509;27;46342;-65
2022/05/11 08:34:51;;;;;;;;;6.00;4.00;;;;;22.49;36.25;100837.63;5105072;27;45529;-67
2022/05/11 08:37:17;;;;;;;;;4.00;2.00;;;;;22.55;36.03;100836.59;5100500;27;45639;-64
2022/05/11 08:39:42;;;;;;;;;4.67;4.67;;;;;22.53;36.10;100823.00;5103654;27;45334;-63
2022/05/11 08:42:08;;;;;;;;;5.33;5.00;;;;;22.49;36.23;100813.13;5111354;27;45428;-65
2022/05/11 08:44:37;;;;;;;;;5.00;5.00;;;;;22.68;35.58;100834.50;5103793;27;45462;-65
2022/05/11 08:47:13;;;;;;;;;4.00;4.00;;;;;22.73;36.02;100821.66;5101849;27;45515;-64
2022/05/11 08:49:53;;;;;;;;;9.33;6.67;;;;;22.79;36.08;100824.25;5095421;27;45486;-64
2022/05/11 08:52:29;;;;;;;;;8.00;6.67;;;;;22.91;36.40;100825.78;5100484;27;45515;-63
2022/05/11 08:55:08;;;;;;;;;6.00;6.00;;;;;22.91;35.82;100813.06;5098163;27;45417;-65
2022/05/11 08:57:33;;;;;;;;;5.33;4.00;;;;;23.07;35.13;100831.81;5095469;27;45548;-64
2022/05/11 09:00:22;;;;;;;;;3.00;2.00;;;;;22.79;34.67;100780.66;5084004;27;45541;-64
2022/05/11 09:02:52;;;;;;;;;6.33;6.00;;;;;22.92;33.46;100787.63;5108683;27;45485;-63
2022/05/11 09:05:22;;;;;;;;;3.00;3.00;;;;;23.21;33.66;100826.00;5098357;27;45647;-64
2022/05/11 09:07:49;;;;;;;;;4.00;4.00;;;;;23.15;33.66;100808.88;5104744;27;45291;-63
2022/05/11 09:10:23;;;;;;;;;3.00;3.00;;;;;22.92;32.88;100754.03;5107585;27;45418;-65
2022/05/11 09:12:57;;;;;;;;;3.67;3.67;;;;;23.30;32.13;100826.69;5105613;27;45635;-65
2022/05/11 09:15:43;;;;;;;;;5.33;5.00;;;;;23.34;32.49;100814.75;5103682;27;45397;-63
2022/05/11 09:18:08;;;;;;;;;3.33;2.33;;;;;23.14;31.82;100770.75;5098082;27;46322;-65
2022/05/11 09:20:35;;;;;;;;;5.33;4.00;;;;;23.45;31.98;100809.03;5081234;27;45502;-64
2022/05/11 09:23:02;;;;;;;;;3.00;3.00;;;;;23.51;32.06;100816.16;5099379;27;45378;-64
2022/05/11 09:25:32;;;;;;;;;4.67;4.00;;;;;23.54;32.37;100807.88;5101428;27;45363;-65
2022/05/11 09:28:24;;;;;;;;;3.67;3.67;;;;;23.56;32.17;100811.50;5094446;27;46065;-65
2022/05/11 09:31:28;;;;;;;;;2.33;2.33;;;;;23.74;32.23;100830.09;5094351;27;45386;-63
2022/05/11 09:34:03;;;;;;;;;4.33;3.33;;;;;23.84;32.50;100824.41;5113415;27;45315;-62
2022/05/11 09:36:40;;;;;;;;;7.00;4.67;;;;;23.90;31.99;100819.66;5114933;27;45534;-64
2022/05/11 09:39:14;;;;;;;;;7.00;7.00;;;;;23.99;32.67;100823.06;5117509;27;45374;-64
2022/05/11 09:41:42;;;;;;;;;6.33;5.00;;;;;24.01;31.46;100802.13;5114394;27;45352;-66
2022/05/11 09:44:21;;;;;;;;;6.00;4.33;;;;;24.15;31.36;100829.88;5114679;27;45487;-64
2022/05/11 09:46:47;;;;;;;;;3.67;3.00;;;;;24.17;31.06;100816.19;5117662;27;45310;-63
2022/05/11 09:49:15;;;;;;;;;5.00;5.00;;;;;24.17;31.07;100813.47;5117571;27;46323;-63
2022/05/11 09:51:46;;;;;;;;;4.67;4.67;;;;;24.20;31.45;100816.13;5117302;27;45498;-62
2022/05/11 09:54:17;;;;;;;;;5.67;4.00;;;;;24.23;31.29;100816.91;5117695;27;45388;-63
2022/05/11 09:56:49;;;;;;;;;6.00;4.00;;;;;24.26;31.30;100805.91;5117754;27;45336;-64
2022/05/11 09:59:37;;;;;;;;;4.67;4.67;;;;;24.24;31.63;100796.88;5126364;27;46151;-63
2022/05/11 10:02:25;;;;;;;;;4.00;4.00;;;;;24.24;31.80;100796.88;5117219;27;45384;-62
2022/05/11 10:04:51;;;;;;;;;3.67;3.67;;;;;24.21;31.58;100805.16;5117451;27;45497;-63
2022/05/11 10:07:20;;;;;;;;;3.67;3.67;;;;;24.02;31.69;100782.97;5117343;27;45447;-62
2022/05/11 10:09:52;;;;;;;;;6.33;5.67;;;;;24.23;31.64;100811.44;5117079;27;46322;-64
2022/05/11 10:12:24;;;;;;;;;3.67;3.00;;;;;24.10;32.15;100793.66;5117075;27;45432;-64
2022/05/11 10:23:26;;;;;;;;;3.33;3.33;;;;;24.33;33.00;100808.47;5116838;27;45361;-63
2022/05/11 10:26:00;;;;;;;;;7.33;4.33;;;;;24.43;33.02;100797.19;5117099;27;45393;-66
2022/05/11 10:28:43;;;;;;;;;4.00;3.33;;;;;24.53;33.16;100802.41;5117762;27;45477;-66
2022/05/11 10:31:23;;;;;;;;;6.00;4.00;;;;;24.60;32.33;100801.28;5116689;27;46076;-62
2022/05/11 10:33:56;;;;;;;;;5.67;5.67;;;;;24.61;32.80;100805.81;5132666;27;44843;-63
2022/05/11 10:37:00;;;;;;;;;5.00;5.00;;;;;24.64;32.73;100794.78;5132613;27;45180;-63
2022/05/11 10:39:47;;;;;;;;;5.00;5.00;;;;;24.71;32.43;100803.69;5097655;27;45263;-63
2022/05/11 10:42:41;;;;;;;;;3.67;3.67;;;;;24.56;32.82;100781.38;5112326;27;45568;-64
2022/05/11 10:45:15;;;;;;;;;6.33;6.33;;;;;24.63;33.18;100799.38;5105927;27;45508;-64
2022/05/11 10:48:05;;;;;;;;;4.67;4.00;;;;;24.60;33.79;100810.41;5096911;27;45351;-62
2022/05/11 10:50:54;;;;;;;;;2.00;0.00;;;;;24.57;33.71;100796.81;5097168;27;45513;-65
2022/05/11 10:53:46;;;;;;;;;4.67;3.00;;;;;24.56;33.99;100795.03;5111636;27;45579;-63
2022/05/11 10:56:45;;;;;;;;;6.00;5.33;;;;;24.61;34.08;100793.03;5123549;27;45352;-64
2022/05/11 10:59:56;;;;;;;;;6.33;6.33;;;;;24.65;33.76;100788.41;5124060;27;45449;-64
2022/05/11 11:02:22;;;;;;;;;5.00;5.00;;;;;24.63;34.07;100796.66;5105662;27;45361;-63
2022/05/11 11:05:11;;;;;;;;;3.00;3.00;;;;;24.64;34.61;100783.88;5115854;27;46185;-63
2022/05/11 11:07:52;;;;;;;;;3.33;3.33;;;;;24.61;35.22;100792.16;5091255;27;45453;-67
2022/05/11 11:10:46;;;;;;;;;3.33;3.00;;;;;24.62;34.99;100788.50;5109516;27;45416;-63
2022/05/11 11:13:34;;;;;;;;;6.33;6.33;;;;;24.64;35.05;100790.22;5116332;27;45560;-66
2022/05/11 11:16:02;;;;;;;;;7.00;7.00;;;;;24.56;35.15;100775.91;5114798;27;46869;-64
2022/05/11 11:18:34;;;;;;;;;3.00;3.00;;;;;24.52;35.68;100779.66;5105131;27;45426;-63
2022/05/11 11:21:02;;;;;;;;;3.33;3.00;;;;;24.37;35.37;100755.53;5112922;27;45263;-70
2022/05/11 11:23:31;;;;;;;;;5.33;3.67;;;;;24.46;35.78;100778.00;5104334;27;45331;-68
2022/05/11 11:26:06;;;;;;;;;4.67;3.00;;;;;24.47;35.72;100765.25;5109356;27;45376;-63
2022/05/11 11:28:41;;;;;;;;;7.00;7.00;;;;;24.35;35.61;100732.84;5105667;27;45425;-64
2022/05/11 11:31:09;;;;;;;;;7.33;5.00;;;;;24.56;35.68;100777.75;5094884;27;45710;-64
2022/05/11 11:34:00;;;;;;;;;5.00;3.33;;;;;24.56;35.87;100767.72;5098495;27;45846;-64
2022/05/11 11:36:40;;;;;;;;;4.67;3.33;;;;;24.54;35.83;100753.19;5091804;27;48085;-66
2022/05/11 11:39:09;;;;;;;;;2.33;2.33;;;;;24.61;35.91;100773.03;5102090;27;45516;-62
2022/05/11 11:41:41;;;;;;;;;2.67;2.67;;;;;24.61;35.47;100768.47;5095805;27;45286;-63
2022/05/11 11:44:21;;;;;;;;;9.33;9.33;;;;;24.62;34.77;100759.31;5096116;27;45445;-63
2022/05/11 11:46:50;;;;;;;;;3.00;3.00;;;;;24.63;34.32;100747.47;5095669;27;45425;-64
2022/05/11 11:49:18;;;;;;;;;5.33;4.00;;;;;24.65;35.41;100756.50;5095454;27;45294;-64
2022/05/11 11:52:05;;;;;;;;;4.00;1.00;;;;;24.67;34.77;100751.00;5095796;27;45591;-63
2022/05/11 11:54:46;;;;;;;;;2.67;2.67;;;;;24.69;34.18;100748.22;5099839;27;45600;-64
2022/05/11 11:57:16;;;;;;;;;3.67;3.33;;;;;24.67;34.18;100755.56;5090245;27;47149;-64
2022/05/11 11:59:44;;;;;;;;;5.67;3.67;;;;;24.59;33.98;100736.69;5111598;27;45423;-65
2022/05/11 12:02:39;;;;;;;;;7.00;2.33;;;;;24.66;33.97;100754.66;5106269;27;45527;-63
2022/05/11 12:05:22;;;;;;;;;2.00;2.00;;;;;24.68;33.80;100747.28;5100306;27;45501;-65